LGKV/KVA METAR and TAF weather

Enter ICAO airport designator
Station Type Date Time Source
LGKV METAR 2018/12/18 18:50 UTC NOAA

LGKV 181850Z 13004KT 9999 -RA FEW010 BKN025 OVC060 05/04 Q1020


Station Type Date Time Source
LGKV Decoded METAR 2018/12/18 18:50 UTC NOAA

Chrysoupoli Airport , Greece (LGKV) 40-59N 024-36E 5M
Dec 18, 2018 - 01:50 PM EST / 2018.12.18 1850 UTC
Wind: from the SE (130 degrees) at 5 MPH (4 KT):0
Visibility: greater than 7 mile(s):0
Sky conditions: overcast
Weather: light rain
Temperature: 41 F (5 C)
Dew Point: 39 F (4 C)
Relative Humidity: 93%
Pressure (altimeter): 30.12 in. Hg (1020 hPa)
ob: LGKV 181850Z 13004KT 9999 -RA FEW010 BKN025 OVC060 05/04 Q1020
cycle: 19

Station Type Date Time Source
LGKV TAF 2012/09/21 03:06 UTC NOAA

TAF LGKV 210200Z 2103/2115 34015KT 9999 FEW020 SCT080 PROB30
TEMPO 2100/2106 6000 RA SCT015 BKN030 PROB30
TEMPO 2100/2103 3000 TSRA SCT015 FEW018CB BKN030


Example: see airport list